Krasnosel'kup, Russia
Current Conditions -  °F | °C
As of 4:30 PM on Thursday 23 Oct 2014 (Local Time) from USNN Reporting Station
Clear Clear  
Wind Chill:   Ceiling: Unl
Heat Index:   Visibility: 6mi
Dew Point:   Wind: 0mph
Humidity: 79%   Direction: NA
Pressure: 30"   Gusts: NA
Location:  65.68°N, 82.47°E
Report Text: USNN 231130Z 00000MPS CAVOK M14/M17 Q1016 NOSIG RMK QFE75721410163
Loading
Personal Weather Stations






























Interactive Weather Map
Tropical Storm Tracking
New forecast layout! Learn more

10-Day Weather Forecast

Advertisements
Track Severe Weather on mobile